Time;durP1;ratioP1;P1;durP2;ratioP2;P2;SDS_P1;SDS_P2;PMS_P1;PMS_P2;Temp;Humidity;BMP_temperature;BMP_pressure;BME280_temperature;BME280_humidity;BME280_pressure;Samples;Min_cycle;Max_cycle;Signal;HPM_P1;HPM_P2
2021/12/05 00:22:21;;;;;;;41.90;17.15;;;4.10;99.90;;;;;;4843230;29;20114;-84
2021/12/05 00:24:50;;;;;;;41.10;14.98;;;4.10;99.90;;;;;;4844504;29;20057;-84
2021/12/05 00:27:22;;;;;;;44.78;15.57;;;4.10;99.90;;;;;;4843642;29;20391;-84
2021/12/05 00:30:12;;;;;;;34.28;13.60;;;4.20;99.90;;;;;;4844343;29;20064;-84
2021/12/05 00:32:53;;;;;;;37.63;14.23;;;4.10;99.90;;;;;;4835728;29;20116;-83
2021/12/05 00:35:49;;;;;;;35.00;13.75;;;4.10;99.90;;;;;;4844124;29;20056;-84
2021/12/05 01:02:34;;;;;;;31.42;12.23;;;4.20;99.90;;;;;;4843842;29;20140;-84
2021/12/05 01:07:45;;;;;;;26.92;9.55;;;4.30;99.90;;;;;;4843696;29;20498;-84
2021/12/05 01:10:34;;;;;;;33.08;10.80;;;4.30;99.90;;;;;;4843445;29;20050;-84
2021/12/05 01:13:25;;;;;;;32.22;10.88;;;4.20;99.90;;;;;;4843611;29;20054;-83
2021/12/05 01:15:47;;;;;;;27.30;9.90;;;4.30;99.90;;;;;;4843297;29;20503;-83
2021/12/05 01:18:16;;;;;;;36.15;10.70;;;4.20;99.90;;;;;;4843561;29;20077;-83
2021/12/05 01:20:52;;;;;;;30.55;10.38;;;4.20;99.90;;;;;;4841944;29;20191;-83
2021/12/05 01:26:20;;;;;;;33.60;11.40;;;4.20;99.90;;;;;;4843441;29;20141;-83
2021/12/05 01:33:46;;;;;;;28.67;9.85;;;4.20;99.90;;;;;;4839811;29;20053;-83
2021/12/05 01:36:21;;;;;;;27.05;10.38;;;4.10;99.90;;;;;;4843098;29;20058;-83
2021/12/05 01:58:19;;;;;;;24.65;10.27;;;4.00;99.90;;;;;;4827443;29;20054;-84
2021/12/05 02:12:15;;;;;;;26.23;7.50;;;4.00;99.90;;;;;;4827174;29;20509;-83
2021/12/05 02:39:14;;;;;;;19.83;8.50;;;4.00;99.90;;;;;;4826769;29;20395;-83
2021/12/05 02:41:46;;;;;;;24.85;8.52;;;4.00;99.90;;;;;;4826882;29;20062;-84
2021/12/05 02:46:48;;;;;;;16.25;7.63;;;3.90;99.90;;;;;;4826858;29;20054;-84
2021/12/05 02:49:16;;;;;;;20.80;7.53;;;3.90;99.90;;;;;;4832860;29;20049;-84
2021/12/05 02:51:51;;;;;;;19.05;8.77;;;3.90;99.90;;;;;;4841238;29;20050;-83
2021/12/05 02:54:20;;;;;;;19.92;7.30;;;3.90;99.90;;;;;;4841764;29;20050;-83
2021/12/05 02:56:49;;;;;;;24.45;9.48;;;3.90;99.90;;;;;;4841840;29;20042;-83
2021/12/05 02:59:23;;;;;;;17.70;7.97;;;3.80;99.90;;;;;;4841448;29;20477;-83
2021/12/05 03:01:56;;;;;;;19.30;7.85;;;3.90;99.90;;;;;;4841455;29;20108;-83
2021/12/05 03:04:24;;;;;;;20.05;8.05;;;3.90;99.90;;;;;;4841489;29;20061;-83
2021/12/05 03:06:55;;;;;;;24.45;8.38;;;3.80;99.90;;;;;;4841924;29;20123;-83
2021/12/05 03:09:21;;;;;;;22.75;8.43;;;3.90;99.90;;;;;;4841984;29;20058;-83
2021/12/05 03:11:50;;;;;;;23.17;7.80;;;3.90;99.90;;;;;;4841454;29;20098;-83
2021/12/05 03:14:16;;;;;;;21.50;8.43;;;3.90;99.90;;;;;;4841350;29;20058;-83
2021/12/05 03:16:42;;;;;;;21.35;8.80;;;3.90;99.90;;;;;;4841475;29;20049;-83
2021/12/05 03:19:09;;;;;;;22.20;8.32;;;4.00;99.90;;;;;;4841437;29;20490;-83
2021/12/05 03:21:36;;;;;;;18.67;8.82;;;4.00;99.90;;;;;;4841249;29;20053;-83
2021/12/05 03:24:03;;;;;;;24.13;9.05;;;4.00;99.90;;;;;;4842737;29;20065;-83
2021/12/05 03:26:34;;;;;;;20.63;8.25;;;4.00;99.90;;;;;;4841800;29;20054;-83
2021/12/05 03:29:00;;;;;;;22.45;9.02;;;4.10;99.90;;;;;;4841465;29;20516;-83
2021/12/05 03:31:30;;;;;;;25.95;9.60;;;4.00;99.90;;;;;;4841289;29;20050;-83
2021/12/05 03:33:57;;;;;;;24.98;9.38;;;4.00;99.90;;;;;;4839105;29;20058;-83
2021/12/05 03:36:23;;;;;;;22.33;9.45;;;4.00;99.90;;;;;;4841259;29;20115;-83
2021/12/05 03:38:49;;;;;;;26.98;9.43;;;4.00;99.90;;;;;;4841108;29;20054;-83
2021/12/05 03:41:16;;;;;;;25.83;10.35;;;4.00;99.90;;;;;;4841508;29;20116;-83
2021/12/05 03:43:44;;;;;;;22.70;9.48;;;4.00;99.90;;;;;;4841441;29;20440;-83
2021/12/05 03:46:10;;;;;;;27.00;10.27;;;4.00;99.90;;;;;;4841064;29;20053;-83
2021/12/05 03:48:40;;;;;;;27.23;11.43;;;4.00;99.90;;;;;;4841376;29;20058;-84
2021/12/05 03:51:11;;;;;;;25.45;9.38;;;4.00;99.90;;;;;;4841175;29;20053;-84
2021/12/05 03:53:36;;;;;;;22.70;9.50;;;4.00;99.90;;;;;;4840622;29;20395;-84
2021/12/05 03:56:05;;;;;;;23.10;9.63;;;3.90;99.90;;;;;;4842639;29;20605;-84
2021/12/05 03:58:32;;;;;;;26.83;11.00;;;3.90;99.90;;;;;;4844494;29;20093;-84
2021/12/05 04:01:00;;;;;;;29.05;10.38;;;3.90;99.90;;;;;;4844648;29;20042;-83
2021/12/05 04:03:27;;;;;;;23.08;9.68;;;3.90;99.90;;;;;;4844272;29;20061;-84
2021/12/05 04:05:53;;;;;;;21.80;10.30;;;3.90;99.90;;;;;;4844589;29;20046;-84
2021/12/05 04:08:23;;;;;;;29.40;10.13;;;3.90;99.90;;;;;;4844371;29;20054;-84
2021/12/05 04:10:56;;;;;;;28.10;9.98;;;3.80;99.90;;;;;;4844770;29;20054;-84
2021/12/05 04:13:22;;;;;;;22.55;10.23;;;3.90;99.90;;;;;;4825931;29;20479;-84
2021/12/05 04:15:50;;;;;;;21.90;9.05;;;3.80;99.90;;;;;;4826065;29;20133;-84
2021/12/05 04:18:15;;;;;;;25.35;9.88;;;3.80;99.90;;;;;;4826338;29;20112;-84
2021/12/05 04:20:41;;;;;;;26.33;11.73;;;3.80;99.90;;;;;;4831121;29;20046;-84
2021/12/05 04:23:07;;;;;;;19.08;10.20;;;3.70;99.90;;;;;;4843861;29;20041;-84
2021/12/05 04:25:36;;;;;;;24.45;12.02;;;3.70;99.90;;;;;;4843890;29;20090;-84
2021/12/05 04:28:03;;;;;;;25.45;11.35;;;3.70;99.90;;;;;;4844152;29;20079;-84
2021/12/05 04:30:29;;;;;;;26.38;10.35;;;3.70;99.90;;;;;;4844490;29;20058;-84
2021/12/05 04:32:55;;;;;;;24.90;11.35;;;3.70;99.90;;;;;;4843800;29;20049;-84
2021/12/05 04:35:21;;;;;;;26.25;11.50;;;3.70;99.90;;;;;;4843397;29;20065;-84
2021/12/05 04:37:46;;;;;;;28.42;12.65;;;3.70;99.90;;;;;;4843987;29;20140;-84
2021/12/05 04:40:13;;;;;;;31.00;12.27;;;3.70;99.90;;;;;;4843810;29;20053;-84
2021/12/05 04:42:39;;;;;;;23.20;12.77;;;3.70;99.90;;;;;;4843850;29;20083;-84
2021/12/05 04:45:09;;;;;;;26.23;12.23;;;3.70;99.90;;;;;;4843811;29;20077;-84
2021/12/05 04:47:34;;;;;;;28.67;12.25;;;3.80;99.90;;;;;;4843645;29;20046;-84
2021/12/05 04:50:00;;;;;;;32.38;13.10;;;3.80;99.90;;;;;;4843562;29;20058;-84
2021/12/05 04:52:26;;;;;;;24.92;12.25;;;3.80;99.90;;;;;;4843861;29;20133;-84
2021/12/05 04:54:52;;;;;;;28.08;12.00;;;3.80;99.90;;;;;;4843292;29;20436;-84
2021/12/05 04:57:18;;;;;;;22.77;12.32;;;3.80;99.90;;;;;;4843711;29;20058;-84
2021/12/05 04:59:48;;;;;;;26.38;12.35;;;3.80;99.90;;;;;;4843670;29;20406;-83
2021/12/05 05:02:14;;;;;;;28.88;13.20;;;3.80;99.90;;;;;;4843628;29;20052;-84
2021/12/05 05:04:44;;;;;;;25.75;12.93;;;3.80;99.90;;;;;;4842986;29;20050;-84
2021/12/05 05:07:25;;;;;;;35.45;12.82;;;3.80;99.90;;;;;;4830653;29;20065;-84
2021/12/05 05:10:02;;;;;;;29.52;13.65;;;3.80;99.90;;;;;;4843787;29;20087;-84
2021/12/05 05:12:28;;;;;;;26.98;12.00;;;3.80;99.90;;;;;;4843451;29;20081;-84
2021/12/05 05:14:55;;;;;;;30.23;13.35;;;3.80;99.90;;;;;;4843024;29;20089;-84
2021/12/05 05:17:25;;;;;;;34.22;13.50;;;3.80;99.90;;;;;;4843330;29;20046;-83
2021/12/05 05:19:55;;;;;;;33.30;13.27;;;3.80;99.90;;;;;;4843554;29;20053;-83
2021/12/05 05:22:47;;;;;;;32.92;14.50;;;3.80;99.90;;;;;;4843259;29;20379;-83
2021/12/05 05:39:23;;;;;;;31.40;14.45;;;3.80;99.90;;;;;;4843230;29;20077;-83
2021/12/05 05:47:05;;;;;;;31.17;14.48;;;3.80;99.90;;;;;;4842885;29;20054;-84
2021/12/05 05:49:53;;;;;;;44.70;17.13;;;3.90;99.90;;;;;;4842647;29;20061;-84
2021/12/05 05:52:20;;;;;;;32.85;15.98;;;3.80;99.90;;;;;;4842664;29;20137;-83
2021/12/05 05:54:48;;;;;;;39.08;17.85;;;3.80;99.90;;;;;;4842471;29;20050;-84
2021/12/05 05:57:31;;;;;;;38.47;17.48;;;3.90;99.90;;;;;;4841981;29;20396;-83
2021/12/05 06:00:09;;;;;;;45.22;17.73;;;3.80;99.90;;;;;;4842588;29;20053;-84
2021/12/05 06:05:21;;;;;;;42.13;17.88;;;3.80;99.90;;;;;;4842050;29;20057;-84
2021/12/05 06:07:47;;;;;;;39.60;18.23;;;3.80;99.90;;;;;;4842267;29;20048;-84
2021/12/05 06:10:16;;;;;;;43.92;19.42;;;3.80;99.90;;;;;;4842575;29;20049;-83
2021/12/05 06:12:42;;;;;;;43.75;18.00;;;3.80;99.90;;;;;;4842421;29;20137;-83
2021/12/05 06:15:12;;;;;;;47.60;19.48;;;3.80;99.90;;;;;;4842051;29;20133;-83
2021/12/05 06:17:38;;;;;;;36.80;17.85;;;3.80;99.90;;;;;;4842114;29;20417;-83
2021/12/05 06:20:08;;;;;;;45.92;18.88;;;3.80;99.90;;;;;;4841492;29;20050;-83
2021/12/05 06:22:34;;;;;;;41.38;18.38;;;3.80;99.90;;;;;;4842494;29;20060;-83
2021/12/05 06:25:01;;;;;;;48.10;19.10;;;3.80;99.90;;;;;;4842110;29;20056;-84
2021/12/05 06:27:27;;;;;;;48.20;19.55;;;3.90;99.90;;;;;;4841988;29;20054;-83
2021/12/05 06:30:03;;;;;;;45.17;19.00;;;3.90;99.90;;;;;;4841796;29;20057;-84
2021/12/05 06:38:08;;;;;;;42.30;19.70;;;3.80;99.90;;;;;;4841398;29;20064;-84
2021/12/05 06:40:48;;;;;;;41.28;18.02;;;3.80;99.90;;;;;;4828904;29;20094;-84
2021/12/05 06:46:01;;;;;;;41.95;19.58;;;3.90;99.90;;;;;;4842172;29;20058;-83
2021/12/05 06:46:18;;;;;;;43.08;19.98;;;3.90;99.90;;;;;;4841925;29;20053;-84
2021/12/05 06:48:45;;;;;;;42.80;20.48;;;3.90;99.90;;;;;;4841723;29;20081;-83
2021/12/05 06:51:12;;;;;;;46.15;20.27;;;3.90;99.90;;;;;;4841757;29;20483;-83
2021/12/05 06:53:38;;;;;;;46.58;19.45;;;3.90;99.90;;;;;;4841895;29;20057;-83
2021/12/05 06:56:04;;;;;;;51.70;20.65;;;3.80;99.90;;;;;;4842035;29;20086;-83
2021/12/05 06:58:32;;;;;;;40.55;19.88;;;3.90;99.90;;;;;;4841839;29;20058;-83
2021/12/05 07:01:03;;;;;;;37.58;19.77;;;3.90;99.90;;;;;;4841575;29;20129;-83
2021/12/05 07:03:29;;;;;;;42.60;20.98;;;3.90;99.90;;;;;;4841839;29;20054;-83
2021/12/05 07:06:02;;;;;;;36.90;19.90;;;3.80;99.90;;;;;;4841601;29;20405;-83
2021/12/05 07:08:32;;;;;;;41.72;18.42;;;3.80;99.90;;;;;;4841117;29;20054;-83
2021/12/05 07:19:11;;;;;;;46.53;20.10;;;3.80;99.90;;;;;;4841531;29;20133;-83
2021/12/05 07:22:00;;;;;;;39.00;19.50;;;3.80;99.90;;;;;;4841431;29;20066;-83
2021/12/05 07:41:30;;;;;;;40.80;19.85;;;3.80;99.90;;;;;;4849288;29;20186;-83
2021/12/05 07:43:57;;;;;;;44.58;19.65;;;3.80;99.90;;;;;;4844877;29;20054;-83
2021/12/05 07:46:23;;;;;;;40.78;19.85;;;3.80;99.90;;;;;;4844586;29;20052;-83
2021/12/05 07:48:49;;;;;;;41.03;20.42;;;3.80;99.90;;;;;;4843956;29;20050;-83
2021/12/05 07:56:27;;;;;;;40.83;19.25;;;3.80;99.90;;;;;;4843565;29;20418;-84
2021/12/05 07:59:05;;;;;;;43.58;20.63;;;3.70;99.90;;;;;;4844703;29;20050;-84
2021/12/05 08:17:39;;;;;;;36.33;19.30;;;3.80;99.90;;;;;;4844106;29;20057;-84
2021/12/05 08:20:10;;;;;;;43.95;19.88;;;3.80;99.90;;;;;;4844107;29;20046;-83
2021/12/05 08:22:36;;;;;;;42.83;19.88;;;3.80;99.90;;;;;;4844993;29;20132;-84
2021/12/05 08:25:12;;;;;;;44.50;19.08;;;3.80;99.90;;;;;;4844225;29;20059;-83
2021/12/05 08:27:42;;;;;;;40.65;18.65;;;3.80;99.90;;;;;;4844121;29;20050;-84
2021/12/05 08:30:12;;;;;;;41.95;19.30;;;3.80;99.90;;;;;;4843883;29;20565;-83
2021/12/05 08:38:16;;;;;;;41.67;17.95;;;3.80;99.90;;;;;;4844053;29;20069;-83
2021/12/05 08:40:53;;;;;;;35.88;16.73;;;3.70;99.90;;;;;;4843359;29;20511;-83
2021/12/05 08:43:46;;;;;;;32.45;16.63;;;3.70;99.90;;;;;;4840132;29;20093;-82
2021/12/05 10:09:27;;;;;;;32.53;13.35;;;3.80;99.90;;;;;;4826811;29;20049;-83
2021/12/05 10:12:15;;;;;;;42.80;18.15;;;3.90;99.90;;;;;;4809260;29;20407;-83
2021/12/05 10:14:59;;;;;;;46.45;18.05;;;3.90;99.90;;;;;;4838034;29;20592;-83
2021/12/05 10:26:04;;;;;;;34.60;17.10;;;3.90;99.90;;;;;;4827691;29;20533;-83
2021/12/05 10:26:54;;;;;;;40.08;15.98;;;4.00;99.90;;;;;;4826870;29;20510;-83
2021/12/05 10:37:56;;;;;;;34.42;14.77;;;4.00;99.90;;;;;;4830974;29;20057;-83
2021/12/05 10:40:34;;;;;;;33.17;14.07;;;4.10;99.90;;;;;;4833709;29;20498;-83
2021/12/05 10:43:01;;;;;;;29.23;13.07;;;4.10;99.90;;;;;;4830572;29;20430;-84
2021/12/05 10:45:56;;;;;;;35.78;13.52;;;4.10;99.90;;;;;;4820874;29;20132;-83
2021/12/05 10:48:32;;;;;;;33.03;12.93;;;4.10;99.90;;;;;;4794655;29;20085;-83
2021/12/05 10:51:02;;;;;;;35.92;14.13;;;4.10;99.90;;;;;;4809905;29;20055;-84
2021/12/05 10:53:49;;;;;;;35.30;12.75;;;4.20;99.90;;;;;;4844867;29;20052;-83
2021/12/05 10:57:03;;;;;;;39.85;15.15;;;4.20;99.90;;;;;;4849719;24;20091;-83
2021/12/05 10:59:40;;;;;;;59.67;24.20;;;4.20;99.90;;;;;;4826680;29;20116;-83
2021/12/05 11:02:12;;;;;;;44.88;18.30;;;4.30;99.90;;;;;;4826370;29;20042;-83
2021/12/05 11:04:42;;;;;;;55.63;24.55;;;4.30;99.90;;;;;;4827408;29;20054;-83
2021/12/05 11:13:27;;;;;;;35.35;13.85;;;4.40;99.90;;;;;;5184276;23;20053;-82
2021/12/05 11:15:53;;;;;;;35.80;14.63;;;4.40;99.90;;;;;;4843636;24;20065;-83
2021/12/05 11:18:42;;;;;;;32.80;13.45;;;4.40;99.90;;;;;;4844259;29;20050;-83
2021/12/05 11:21:31;;;;;;;34.70;15.40;;;4.50;99.90;;;;;;4829879;29;20049;-83
2021/12/05 11:24:16;;;;;;;36.03;13.65;;;4.50;99.90;;;;;;4826383;29;20057;-83
2021/12/05 11:27:07;;;;;;;38.13;13.40;;;4.50;99.90;;;;;;4826078;29;20049;-83
2021/12/05 11:29:45;;;;;;;33.35;13.13;;;4.50;99.90;;;;;;4830008;29;20106;-84
2021/12/05 11:32:18;;;;;;;34.50;13.93;;;4.50;99.90;;;;;;4839872;29;20049;-82
2021/12/05 11:34:45;;;;;;;;;;;4.60;99.90;;;;;;4822122;29;20060;-82
2021/12/05 11:37:17;;;;;;;26.17;11.20;;;4.60;99.90;;;;;;4837709;29;19924;-83
2021/12/05 11:39:43;;;;;;;36.03;13.60;;;4.60;99.90;;;;;;4837853;29;20054;-83
2021/12/05 11:42:14;;;;;;;32.92;13.98;;;4.60;99.90;;;;;;4835292;29;20601;-83
2021/12/05 11:47:36;;;;;;;30.05;12.38;;;4.70;99.90;;;;;;5061808;23;20141;-83
2021/12/05 11:50:36;;;;;;;31.73;12.90;;;4.70;99.90;;;;;;4826182;29;20057;-83
2021/12/05 11:53:10;;;;;;;37.75;15.75;;;4.70;99.90;;;;;;4825715;29;20188;-82
2021/12/05 11:55:36;;;;;;;35.88;14.70;;;4.70;99.90;;;;;;4825759;29;20132;-82
2021/12/05 11:58:02;;;;;;;39.75;15.57;;;4.70;99.90;;;;;;4825884;29;20174;-83
2021/12/05 12:00:28;;;;;;;32.35;14.77;;;4.80;99.90;;;;;;4825825;29;20137;-83
2021/12/05 12:02:55;;;;;;;36.38;14.85;;;4.70;99.90;;;;;;4825666;29;20054;-83
2021/12/05 12:05:26;;;;;;;41.00;17.25;;;4.80;99.90;;;;;;4825035;29;20065;-83
2021/12/05 12:08:12;;;;;;;38.55;16.38;;;4.80;99.90;;;;;;4825591;29;20132;-83
2021/12/05 12:10:43;;;;;;;43.95;18.30;;;4.80;99.90;;;;;;4825789;29;20050;-83
2021/12/05 12:13:13;;;;;;;35.47;17.08;;;4.80;99.90;;;;;;4825698;29;20129;-83
2021/12/05 12:15:42;;;;;;;36.95;15.98;;;4.80;99.90;;;;;;4824892;29;20119;-83
2021/12/05 12:18:18;;;;;;;30.55;12.90;;;4.90;99.90;;;;;;4827070;29;20117;-83
2021/12/05 12:20:46;;;;;;;34.15;14.25;;;4.80;99.90;;;;;;4828876;29;20053;-84
2021/12/05 12:23:15;;;;;;;36.08;15.30;;;4.90;99.90;;;;;;4828724;29;20103;-83
2021/12/05 12:25:43;;;;;;;29.30;13.52;;;4.90;99.90;;;;;;4828672;29;20054;-83
2021/12/05 12:28:10;;;;;;;35.08;14.85;;;4.80;99.90;;;;;;4828472;29;20133;-84
2021/12/05 12:30:40;;;;;;;35.10;14.38;;;4.90;99.90;;;;;;4828473;29;20121;-83
2021/12/05 12:33:19;;;;;;;31.02;13.05;;;4.90;99.90;;;;;;4828490;29;20057;-83
2021/12/05 12:35:47;;;;;;;29.27;13.02;;;4.80;99.90;;;;;;4827736;29;20082;-83
2021/12/05 12:38:25;;;;;;;34.00;13.38;;;4.80;99.90;;;;;;4828330;29;20043;-83
2021/12/05 12:41:02;;;;;;;30.48;12.40;;;4.80;99.90;;;;;;4828310;29;20054;-83
2021/12/05 12:43:36;;;;;;;35.45;16.17;;;4.80;99.90;;;;;;4828376;29;20054;-83
2021/12/05 12:46:20;;;;;;;39.70;15.55;;;4.80;99.90;;;;;;4827552;29;20482;-83
2021/12/05 12:48:48;;;;;;;29.05;14.70;;;4.80;99.90;;;;;;4828321;29;20213;-83
2021/12/05 12:51:57;;;;;;;34.45;17.77;;;4.80;99.90;;;;;;4844973;29;20098;-83
2021/12/05 12:54:48;;;;;;;34.42;16.88;;;4.80;99.90;;;;;;4824263;29;20463;-83
2021/12/05 12:57:28;;;;;;;31.05;15.93;;;4.80;99.90;;;;;;4828176;29;20106;-83
2021/12/05 12:59:56;;;;;;;35.78;16.25;;;4.80;99.90;;;;;;4828347;29;20467;-83
2021/12/05 13:02:37;;;;;;;35.65;15.20;;;4.80;99.90;;;;;;4827964;29;20054;-84
2021/12/05 13:05:23;;;;;;;32.92;15.18;;;4.80;99.90;;;;;;4827815;29;20045;-83
2021/12/05 13:10:43;;;;;;;36.47;15.18;;;4.80;99.90;;;;;;4827912;29;20122;-83
2021/12/05 13:13:26;;;;;;;34.22;14.70;;;4.80;99.90;;;;;;4827773;29;20360;-83
2021/12/05 13:15:57;;;;;;;29.17;11.98;;;4.90;99.90;;;;;;4827530;29;20057;-83
2021/12/05 13:18:30;;;;;;;31.20;13.15;;;4.90;99.90;;;;;;4827767;29;20076;-83
2021/12/05 13:21:05;;;;;;;29.35;13.13;;;4.90;99.90;;;;;;4827723;29;20448;-83
2021/12/05 13:23:40;;;;;;;25.33;11.77;;;4.80;99.90;;;;;;4827746;29;20045;-83
2021/12/05 13:26:23;;;;;;;34.15;13.15;;;4.80;99.90;;;;;;4827931;29;20406;-83
2021/12/05 13:28:56;;;;;;;38.67;13.63;;;4.90;99.90;;;;;;4827321;29;20402;-83
2021/12/05 13:31:27;;;;;;;26.25;11.95;;;4.80;99.90;;;;;;4827820;29;20457;-83
2021/12/05 13:34:24;;;;;;;38.42;14.25;;;4.80;99.90;;;;;;4827470;29;20056;-83
2021/12/05 13:37:08;;;;;;;35.05;15.63;;;4.80;99.90;;;;;;4827159;29;20056;-83
2021/12/05 13:39:44;;;;;;;33.38;14.38;;;4.90;99.90;;;;;;4827669;29;20064;-83
2021/12/05 13:42:18;;;;;;;29.95;12.95;;;4.80;99.90;;;;;;4827619;29;20077;-83
2021/12/05 13:45:12;;;;;;;32.55;13.82;;;4.80;99.90;;;;;;4827663;29;20061;-84
2021/12/05 13:47:52;;;;;;;34.35;14.70;;;4.80;99.90;;;;;;4830162;29;20073;-83
2021/12/05 13:50:18;;;;;;;33.92;13.50;;;4.70;99.90;;;;;;4842483;29;20118;-82
2021/12/05 13:53:05;;;;;;;34.53;15.45;;;4.70;99.90;;;;;;4842413;29;20057;-83
2021/12/05 13:55:41;;;;;;;32.25;14.35;;;4.70;99.90;;;;;;4836032;29;20538;-82
2021/12/05 13:58:35;;;;;;;33.03;14.48;;;4.70;99.90;;;;;;4842326;29;20085;-82
2021/12/05 14:01:10;;;;;;;32.70;15.15;;;4.70;99.90;;;;;;4842601;29;20137;-83
2021/12/05 14:03:48;;;;;;;44.80;16.75;;;4.70;99.90;;;;;;4842319;29;20062;-84
2021/12/05 14:06:25;;;;;;;47.63;16.45;;;4.70;99.90;;;;;;4841911;29;20455;-84
2021/12/05 14:08:53;;;;;;;35.25;15.13;;;4.70;99.90;;;;;;4850632;29;20061;-83
2021/12/05 14:11:19;;;;;;;46.97;17.30;;;4.70;99.90;;;;;;4841997;29;20406;-85
2021/12/05 14:13:45;;;;;;;36.03;17.33;;;4.70;99.90;;;;;;4841769;29;20495;-83
2021/12/05 14:16:14;;;;;;;32.50;14.90;;;4.70;99.90;;;;;;4841592;29;20132;-85
2021/12/05 14:18:40;;;;;;;40.72;15.50;;;4.70;99.90;;;;;;4833565;29;20080;-83
2021/12/05 14:21:16;;;;;;;40.63;14.73;;;4.70;99.90;;;;;;4843352;29;20057;-85
2021/12/05 14:23:50;;;;;;;34.92;13.73;;;4.60;99.90;;;;;;4842118;29;20482;-81
2021/12/05 14:26:20;;;;;;;32.10;13.30;;;4.70;99.90;;;;;;4841870;29;20109;-82
2021/12/05 14:29:04;;;;;;;36.78;14.30;;;4.70;99.90;;;;;;4841977;29;20041;-83
2021/12/05 14:31:37;;;;;;;32.60;13.00;;;4.70;99.90;;;;;;4841779;29;20038;-85
2021/12/05 14:34:04;;;;;;;40.13;15.57;;;4.70;99.90;;;;;;4841672;29;20050;-82
2021/12/05 14:36:33;;;;;;;38.00;14.75;;;4.70;99.90;;;;;;4841156;29;20049;-83
2021/12/05 14:39:07;;;;;;;48.25;17.98;;;4.70;99.90;;;;;;4841658;29;20038;-83
2021/12/05 14:41:33;;;;;;;39.47;14.85;;;4.60;99.90;;;;;;4840886;29;20110;-84
2021/12/05 14:43:59;;;;;;;35.30;15.02;;;4.60;99.90;;;;;;4841466;29;20050;-85
2021/12/05 14:46:26;;;;;;;37.88;17.60;;;4.60;99.90;;;;;;4841082;29;20066;-81
2021/12/05 14:49:03;;;;;;;45.20;17.17;;;4.60;99.90;;;;;;4826552;29;20054;-82
2021/12/05 14:51:39;;;;;;;45.67;17.92;;;4.70;99.90;;;;;;4826668;29;20067;-83
2021/12/05 14:54:06;;;;;;;35.10;16.77;;;4.60;99.90;;;;;;4826252;29;20123;-82
2021/12/05 14:56:35;;;;;;;43.92;21.60;;;4.60;99.90;;;;;;4826125;29;20054;-83
2021/12/05 14:59:07;;;;;;;44.40;19.65;;;4.60;99.90;;;;;;4826326;29;20467;-82
2021/12/05 15:01:46;;;;;;;44.17;20.60;;;4.60;99.90;;;;;;4826579;29;20046;-82
2021/12/05 15:04:17;;;;;;;49.58;18.83;;;4.60;99.90;;;;;;4826254;29;20061;-80
2021/12/05 15:06:45;;;;;;;44.25;18.58;;;4.60;99.90;;;;;;4826080;29;20058;-87
2021/12/05 15:09:25;;;;;;;45.55;18.27;;;4.60;99.90;;;;;;4826101;29;20058;-84
2021/12/05 15:11:58;;;;;;;44.80;19.20;;;4.60;99.90;;;;;;4825180;29;20495;-84
2021/12/05 15:14:25;;;;;;;62.05;21.58;;;4.60;99.90;;;;;;4823441;29;20046;-83
2021/12/05 15:16:59;;;;;;;47.67;20.70;;;4.60;99.90;;;;;;4825446;29;20129;-83
2021/12/05 15:19:25;;;;;;;34.65;16.35;;;4.60;99.90;;;;;;4818840;29;20102;-83
2021/12/05 15:21:51;;;;;;;38.15;17.27;;;4.60;99.90;;;;;;4826029;29;20050;-82
2021/12/05 15:24:19;;;;;;;37.67;16.95;;;4.60;99.90;;;;;;4825856;29;20443;-83
2021/12/05 15:26:45;;;;;;;42.60;16.92;;;4.60;99.90;;;;;;4826154;29;20065;-83
2021/12/05 15:29:11;;;;;;;41.83;18.95;;;4.60;99.90;;;;;;4825938;29;20407;-83
2021/12/05 15:31:40;;;;;;;40.67;16.83;;;4.60;99.90;;;;;;4825981;29;20046;-83
2021/12/05 15:34:18;;;;;;;39.30;15.88;;;4.60;99.90;;;;;;4826100;29;20432;-83
2021/12/05 15:36:44;;;;;;;52.95;16.83;;;4.60;99.90;;;;;;4825471;29;20054;-84
2021/12/05 15:39:20;;;;;;;40.53;16.92;;;4.60;99.90;;;;;;4826083;29;20060;-84
2021/12/05 15:41:51;;;;;;;37.72;16.90;;;4.60;99.90;;;;;;4825811;29;20054;-83
2021/12/05 15:44:44;;;;;;;44.35;17.92;;;4.60;99.90;;;;;;4825973;29;20510;-84
2021/12/05 15:47:13;;;;;;;39.20;16.60;;;4.50;99.90;;;;;;4827536;29;20066;-84
2021/12/05 15:49:46;;;;;;;39.65;16.58;;;4.50;99.90;;;;;;4841019;29;20115;-84
2021/12/05 15:52:12;;;;;;;41.03;16.45;;;4.50;99.90;;;;;;4842698;29;20435;-84
2021/12/05 15:54:39;;;;;;;42.15;19.05;;;4.50;99.90;;;;;;4844497;29;20494;-84
2021/12/05 15:57:16;;;;;;;38.45;16.98;;;4.40;99.90;;;;;;4844492;29;20054;-84
2021/12/05 15:59:46;;;;;;;38.38;18.58;;;4.40;99.90;;;;;;4845827;29;20132;-84
2021/12/05 16:02:19;;;;;;;39.75;18.20;;;4.50;99.90;;;;;;4844672;29;20522;-85
2021/12/05 16:04:46;;;;;;;38.40;17.23;;;4.40;99.90;;;;;;4844432;29;20065;-85
2021/12/05 16:07:12;;;;;;;37.92;16.58;;;4.40;99.90;;;;;;4844262;29;20049;-85
2021/12/05 16:09:40;;;;;;;39.05;16.67;;;4.40;99.90;;;;;;4844329;29;20121;-84
2021/12/05 16:12:26;;;;;;;43.45;16.88;;;4.40;99.90;;;;;;4844364;29;20050;-82
2021/12/05 16:14:56;;;;;;;43.20;17.85;;;4.40;99.90;;;;;;4842767;29;20058;-83
2021/12/05 16:17:25;;;;;;;39.85;16.40;;;4.40;99.90;;;;;;4844247;29;20054;-83
2021/12/05 16:20:21;;;;;;;38.20;16.23;;;4.40;99.90;;;;;;4845346;29;20546;-83
2021/12/05 16:22:57;;;;;;;34.15;15.50;;;4.30;99.90;;;;;;4836538;29;20058;-85
2021/12/05 16:25:24;;;;;;;41.05;18.42;;;4.30;99.90;;;;;;4844591;29;20439;-85
2021/12/05 16:27:55;;;;;;;37.45;18.02;;;4.30;99.90;;;;;;4844616;29;20121;-85
2021/12/05 16:30:26;;;;;;;41.30;17.58;;;4.30;99.90;;;;;;4845631;29;20046;-85
2021/12/05 16:32:53;;;;;;;34.70;15.63;;;4.30;99.90;;;;;;4844422;29;20088;-85
2021/12/05 16:35:37;;;;;;;32.58;15.80;;;4.30;99.90;;;;;;4845427;29;20056;-85
2021/12/05 16:38:37;;;;;;;35.85;15.15;;;4.30;99.90;;;;;;4845104;29;20404;-84
2021/12/05 16:41:12;;;;;;;35.97;16.58;;;4.20;99.90;;;;;;4844979;29;20072;-82
2021/12/05 16:43:49;;;;;;;32.30;14.95;;;4.20;99.90;;;;;;4845339;29;20054;-84
2021/12/05 16:46:36;;;;;;;36.35;15.63;;;4.20;99.90;;;;;;4844098;29;20050;-84
2021/12/05 16:49:09;;;;;;;29.75;14.35;;;4.10;99.90;;;;;;4828657;29;20068;-85
2021/12/05 16:51:47;;;;;;;28.20;14.38;;;4.10;99.90;;;;;;4828835;29;20497;-85
2021/12/05 16:54:34;;;;;;;28.10;12.30;;;4.10;99.90;;;;;;4828581;29;20490;-85
2021/12/05 16:57:23;;;;;;;25.92;11.95;;;4.10;99.90;;;;;;4828574;29;20057;-85
2021/12/05 16:59:51;;;;;;;27.10;13.20;;;4.10;99.90;;;;;;4828506;29;20071;-85
2021/12/05 17:02:25;;;;;;;25.45;12.88;;;4.00;99.90;;;;;;4845061;29;20042;-85
2021/12/05 17:05:15;;;;;;;26.20;11.73;;;4.00;99.90;;;;;;4828402;29;20050;-85
2021/12/05 17:08:12;;;;;;;23.00;11.02;;;4.00;99.90;;;;;;4828280;29;20534;-85
2021/12/05 17:10:58;;;;;;;23.00;12.02;;;4.00;99.90;;;;;;4828550;29;20379;-83
2021/12/05 17:13:33;;;;;;;28.30;13.43;;;4.00;99.90;;;;;;4828491;29;20447;-84
2021/12/05 17:16:05;;;;;;;30.85;12.23;;;4.00;99.90;;;;;;4828447;29;20054;-83
2021/12/05 17:18:57;;;;;;;26.52;12.20;;;4.00;99.90;;;;;;4828081;29;20077;-83
2021/12/05 17:21:28;;;;;;;29.17;12.52;;;4.00;99.90;;;;;;4823579;29;20068;-84
2021/12/05 17:23:57;;;;;;;31.58;13.20;;;3.90;99.90;;;;;;4828129;29;20042;-84
2021/12/05 17:26:25;;;;;;;31.65;15.85;;;4.00;99.90;;;;;;4827942;29;20113;-84
2021/12/05 17:29:12;;;;;;;28.25;13.10;;;3.90;99.90;;;;;;4828188;29;20102;-83
2021/12/05 17:31:45;;;;;;;41.40;18.23;;;3.90;99.90;;;;;;4828031;29;20054;-84
2021/12/05 17:34:13;;;;;;;;;;;3.90;99.90;;;;;;4828478;29;20126;-85
2021/12/05 17:36:42;;;;;;;36.05;15.77;;;3.80;99.90;;;;;;4828197;29;19977;-84
2021/12/05 17:39:17;;;;;;;37.60;18.05;;;3.80;99.90;;;;;;4827573;29;20486;-84
2021/12/05 17:41:47;;;;;;;27.77;14.13;;;3.80;99.90;;;;;;4846115;24;20073;-82
2021/12/05 17:44:16;;;;;;;31.80;15.25;;;3.80;99.90;;;;;;4844190;29;20526;-82
2021/12/05 17:46:42;;;;;;;29.80;15.82;;;3.70;99.90;;;;;;4843217;29;20041;-82
2021/12/05 17:49:11;;;;;;;35.97;17.30;;;3.70;99.90;;;;;;4843966;29;20050;-83
2021/12/05 17:51:39;;;;;;;31.60;13.95;;;3.70;99.90;;;;;;4842782;29;20046;-82
2021/12/05 17:54:08;;;;;;;35.28;16.33;;;3.60;99.90;;;;;;4843878;29;20478;-82
2021/12/05 17:56:44;;;;;;;34.13;16.65;;;3.60;99.90;;;;;;4842787;29;20065;-83
2021/12/05 18:04:42;;;;;;;35.45;18.40;;;3.60;99.90;;;;;;4843969;29;20090;-82
2021/12/05 18:07:09;;;;;;;39.17;20.05;;;3.60;99.90;;;;;;4843857;29;20108;-83
2021/12/05 18:09:35;;;;;;;39.30;18.35;;;3.60;99.90;;;;;;4842797;29;20054;-82
2021/12/05 18:12:02;;;;;;;41.20;20.35;;;3.60;99.90;;;;;;4842363;29;20084;-82
2021/12/05 18:14:30;;;;;;;53.45;24.10;;;3.60;99.90;;;;;;4843112;29;20053;-82
2021/12/05 18:16:55;;;;;;;44.13;20.50;;;3.50;99.90;;;;;;4842564;29;20046;-83